Time;durP1;ratioP1;P1;durP2;ratioP2;P2;SDS_P1;SDS_P2;PMS_P1;PMS_P2;Temp;Humidity;BMP_temperature;BMP_pressure;BME280_temperature;BME280_humidity;BME280_pressure;Samples;Min_cycle;Max_cycle;Signal;HPM_P1;HPM_P2
2021/04/09 00:01:53;;;;;;;21.48;17.58;;;5.20;70.50;;;;;;5034607;28;20056;-37
2021/04/09 00:04:19;;;;;;;23.35;17.35;;;5.10;70.90;;;;;;5034605;28;20055;-37
2021/04/09 00:06:49;;;;;;;22.10;17.92;;;5.10;71.20;;;;;;5030882;28;20069;-37
2021/04/09 00:09:15;;;;;;;19.80;17.77;;;5.10;71.30;;;;;;5030939;28;20046;-37
2021/04/09 00:11:47;;;;;;;20.95;17.45;;;5.00;72.00;;;;;;5030761;28;20052;-37
2021/04/09 00:14:23;;;;;;;25.80;16.65;;;5.00;71.90;;;;;;5028340;28;20158;-37
2021/04/09 00:16:52;;;;;;;19.45;17.27;;;4.90;72.60;;;;;;5031499;28;20808;-37
2021/04/09 00:19:22;;;;;;;20.48;18.30;;;4.90;72.50;;;;;;5034220;28;20470;-37
2021/04/09 00:21:54;;;;;;;23.67;18.77;;;4.80;72.80;;;;;;5030800;28;20513;-37
2021/04/09 00:24:23;;;;;;;20.60;17.20;;;4.80;72.90;;;;;;5036410;28;20144;-37
2021/04/09 00:26:58;;;;;;;20.35;17.92;;;4.80;72.80;;;;;;5037440;28;20047;-37
2021/04/09 00:29:28;;;;;;;19.30;17.25;;;4.70;73.90;;;;;;5032262;28;20284;-37
2021/04/09 00:31:54;;;;;;;21.30;16.30;;;4.70;73.80;;;;;;5027646;28;20219;-37
2021/04/09 00:34:27;;;;;;;21.75;17.13;;;4.70;73.80;;;;;;5032708;28;20126;-37
2021/04/09 00:36:58;;;;;;;22.35;17.15;;;4.60;74.00;;;;;;5032055;28;20087;-37
2021/04/09 00:39:29;;;;;;;18.88;16.88;;;4.60;74.30;;;;;;5028859;28;20049;-41
2021/04/09 00:42:01;;;;;;;22.13;18.17;;;4.60;74.80;;;;;;5028950;28;20060;-37
2021/04/09 00:44:29;;;;;;;21.95;16.55;;;4.60;74.50;;;;;;5031069;28;20914;-37
2021/04/09 00:47:00;;;;;;;19.17;17.10;;;4.60;74.30;;;;;;5030342;28;20164;-37
2021/04/09 00:49:28;;;;;;;21.20;17.05;;;4.50;74.50;;;;;;5029670;28;20062;-37
2021/04/09 00:51:57;;;;;;;21.60;17.35;;;4.50;74.40;;;;;;5031053;28;20045;-37
2021/04/09 00:54:32;;;;;;;22.55;17.85;;;4.50;75.10;;;;;;5034518;28;20072;-37
2021/04/09 00:57:04;;;;;;;21.60;17.63;;;4.50;74.70;;;;;;5034402;28;20060;-37
2021/04/09 00:59:33;;;;;;;21.05;17.10;;;4.40;75.20;;;;;;5030711;28;20061;-37
2021/04/09 01:02:05;;;;;;;20.20;17.88;;;4.40;75.90;;;;;;5037784;28;20125;-37
2021/04/09 01:04:37;;;;;;;;;;;4.30;75.70;;;;;;5037171;28;20486;-37
2021/04/09 01:07:06;;;;;;;24.48;17.50;;;4.40;75.60;;;;;;5032112;28;19952;-37
2021/04/09 01:09:35;;;;;;;20.58;17.38;;;4.30;75.90;;;;;;5029549;28;20045;-37
2021/04/09 01:12:07;;;;;;;19.95;17.60;;;4.30;76.10;;;;;;5026950;28;20050;-37
2021/04/09 01:14:35;;;;;;;21.05;17.35;;;4.30;76.20;;;;;;5030208;28;20579;-37
2021/04/09 01:17:26;;;;;;;25.08;18.50;;;4.30;75.70;;;;;;5034250;28;20511;-36
2021/04/09 01:20:13;;;;;;;23.98;18.27;;;4.30;75.70;;;;;;5033787;28;20048;-36
2021/04/09 01:23:25;;;;;;;28.05;19.30;;;4.30;75.50;;;;;;5039065;28;20696;-36
2021/04/09 01:26:44;;;;;;;23.83;17.95;;;4.40;75.40;;;;;;5020504;28;20698;-36
2021/04/09 01:29:22;;;;;;;22.80;18.58;;;4.30;75.60;;;;;;4942854;29;20051;-36
2021/04/09 01:32:00;;;;;;;21.63;17.65;;;4.40;75.70;;;;;;4943242;29;20535;-36
2021/04/09 01:34:45;;;;;;;23.23;18.17;;;4.50;75.10;;;;;;4943501;29;20058;-36
2021/04/09 01:37:25;;;;;;;18.98;17.05;;;4.50;75.40;;;;;;4942960;29;20064;-36
2021/04/09 01:40:32;;;;;;;22.75;18.75;;;4.50;75.00;;;;;;4943571;29;20055;-36
2021/04/09 01:43:02;;;;;;;24.65;18.00;;;4.60;75.20;;;;;;4897418;29;20704;-36
2021/04/09 01:45:29;;;;;;;23.73;18.92;;;4.60;74.60;;;;;;4888562;29;20080;-36
2021/04/09 01:48:00;;;;;;;27.90;19.15;;;4.70;74.10;;;;;;4897848;29;20062;-36
2021/04/09 01:50:33;;;;;;;22.80;18.00;;;4.80;73.20;;;;;;4896829;29;20133;-36
2021/04/09 01:53:01;;;;;;;24.02;17.70;;;4.80;73.90;;;;;;4899975;29;20319;-36
2021/04/09 01:55:29;;;;;;;23.55;18.73;;;4.80;73.90;;;;;;4904860;29;20048;-36
2021/04/09 01:57:57;;;;;;;22.38;18.42;;;4.80;73.40;;;;;;4900254;29;20060;-36
2021/04/09 02:00:30;;;;;;;21.58;18.05;;;4.70;73.90;;;;;;4894800;29;20060;-36
2021/04/09 02:02:59;;;;;;;22.25;16.95;;;4.80;73.00;;;;;;4915351;29;20055;-36
2021/04/09 02:05:28;;;;;;;27.10;18.27;;;4.80;73.60;;;;;;4938834;29;20831;-36
2021/04/09 02:08:03;;;;;;;21.55;18.23;;;4.80;73.80;;;;;;4931836;29;20138;-36
2021/04/09 02:10:32;;;;;;;23.13;17.35;;;4.80;73.90;;;;;;4936115;29;20053;-36
2021/04/09 02:13:00;;;;;;;23.17;17.83;;;4.80;73.50;;;;;;4935584;29;20091;-36
2021/04/09 02:15:31;;;;;;;23.02;17.92;;;4.80;73.90;;;;;;4940097;29;20078;-36
2021/04/09 02:18:03;;;;;;;20.27;16.87;;;4.90;73.20;;;;;;4964366;28;20045;-37
2021/04/09 02:20:32;;;;;;;21.92;18.67;;;4.90;73.20;;;;;;5043942;28;20667;-37
2021/04/09 02:23:01;;;;;;;21.05;17.30;;;4.90;73.20;;;;;;5037881;28;20139;-37
2021/04/09 02:25:30;;;;;;;23.42;16.38;;;4.90;73.00;;;;;;5039450;28;20064;-37
2021/04/09 02:28:04;;;;;;;24.33;17.35;;;4.90;73.50;;;;;;5035739;28;20056;-37
2021/04/09 02:30:37;;;;;;;27.95;18.88;;;4.90;73.60;;;;;;5035862;28;20371;-37
2021/04/09 02:33:11;;;;;;;19.98;17.83;;;4.90;74.10;;;;;;5044400;28;20052;-37
2021/04/09 02:35:43;;;;;;;19.92;16.50;;;4.90;74.20;;;;;;5039313;28;20413;-36
2021/04/09 02:38:14;;;;;;;20.63;17.80;;;4.90;74.00;;;;;;5036011;28;20065;-37
2021/04/09 02:40:47;;;;;;;24.52;18.35;;;4.90;74.00;;;;;;5039891;28;20056;-37
2021/04/09 02:43:16;;;;;;;22.20;17.65;;;4.90;73.80;;;;;;5031328;28;20033;-37
2021/04/09 02:45:48;;;;;;;24.05;18.13;;;4.90;74.00;;;;;;5037790;28;20045;-37
2021/04/09 02:48:19;;;;;;;19.50;17.38;;;5.00;73.70;;;;;;5028971;28;20058;-36
2021/04/09 02:50:49;;;;;;;20.27;17.85;;;4.90;74.30;;;;;;5034916;28;20053;-36
2021/04/09 02:53:34;;;;;;;29.80;18.77;;;5.00;74.70;;;;;;5040992;28;20045;-37
2021/04/09 02:56:03;;;;;;;20.17;17.48;;;5.00;74.40;;;;;;5037031;28;20045;-37
2021/04/09 02:58:37;;;;;;;24.83;17.92;;;4.90;74.80;;;;;;5026295;28;20050;-37
2021/04/09 03:01:06;;;;;;;23.08;17.00;;;5.00;74.00;;;;;;5029869;28;20107;-37
2021/04/09 03:03:36;;;;;;;19.10;16.83;;;5.00;74.30;;;;;;5025374;28;20099;-37
2021/04/09 03:06:09;;;;;;;21.27;17.52;;;5.00;74.70;;;;;;5013080;28;20057;-36
2021/04/09 03:08:35;;;;;;;20.98;16.65;;;5.00;74.60;;;;;;5042766;28;20115;-37
2021/04/09 03:11:08;;;;;;;23.50;17.30;;;5.10;74.20;;;;;;5041257;28;20550;-37
2021/04/09 03:13:36;;;;;;;24.52;16.77;;;5.10;74.80;;;;;;5026819;28;20140;-37
2021/04/09 03:16:09;;;;;;;23.55;17.55;;;5.10;74.70;;;;;;5040555;28;20089;-37
2021/04/09 03:18:46;;;;;;;22.33;17.40;;;5.30;73.70;;;;;;5045856;28;20102;-36
2021/04/09 03:21:18;;;;;;;22.75;17.48;;;5.30;74.30;;;;;;5027104;28;20531;-36
2021/04/09 03:23:55;;;;;;;22.63;16.70;;;5.30;73.80;;;;;;5028011;28;20053;-36
2021/04/09 03:26:24;;;;;;;19.27;15.80;;;5.40;73.70;;;;;;5031842;28;20048;-36
2021/04/09 03:28:56;;;;;;;21.75;16.70;;;5.40;73.90;;;;;;5029904;28;20060;-36
2021/04/09 03:31:29;;;;;;;22.38;17.00;;;5.40;73.70;;;;;;5026853;28;20048;-36
2021/04/09 03:33:55;;;;;;;;;;;5.50;73.80;;;;;;5026278;28;20062;-36
2021/04/09 03:36:26;;;;;;;24.63;17.10;;;5.50;73.40;;;;;;5037392;28;19932;-37
2021/04/09 03:38:55;;;;;;;21.13;15.85;;;5.50;73.00;;;;;;5026259;28;20758;-36
2021/04/09 03:41:29;;;;;;;22.30;16.50;;;5.60;72.90;;;;;;5027733;28;20053;-37
2021/04/09 03:43:58;;;;;;;25.73;16.88;;;5.60;72.80;;;;;;5026123;28;20054;-37
2021/04/09 03:46:28;;;;;;;20.35;15.77;;;5.60;73.00;;;;;;5032163;28;20469;-37
2021/04/09 03:49:03;;;;;;;20.05;15.93;;;5.60;73.40;;;;;;5045309;28;20144;-36
2021/04/09 03:51:38;;;;;;;22.60;15.80;;;5.50;73.50;;;;;;5025435;28;20042;-36
2021/04/09 03:54:12;;;;;;;20.20;15.20;;;5.50;73.50;;;;;;5027286;28;20407;-36
2021/04/09 03:56:38;;;;;;;19.63;16.17;;;5.50;73.90;;;;;;5032393;28;20151;-36
2021/04/09 03:59:06;;;;;;;20.42;16.58;;;5.50;74.30;;;;;;5030124;28;20053;-36
2021/04/09 04:01:37;;;;;;;20.58;17.25;;;5.50;74.30;;;;;;5041670;28;20045;-36
2021/04/09 04:04:08;;;;;;;19.63;17.10;;;5.50;74.80;;;;;;5039945;28;20049;-36
2021/04/09 04:06:39;;;;;;;21.77;16.38;;;5.40;74.80;;;;;;5046909;28;20477;-36
2021/04/09 04:09:08;;;;;;;21.27;16.30;;;5.40;74.90;;;;;;5025743;28;20053;-36
2021/04/09 04:11:42;;;;;;;19.75;15.93;;;5.40;75.10;;;;;;5033711;28;20155;-36
2021/04/09 04:14:13;;;;;;;20.33;16.17;;;5.40;74.90;;;;;;5025388;28;20049;-36
2021/04/09 04:16:45;;;;;;;21.25;17.40;;;5.40;75.20;;;;;;5043728;28;20049;-36
2021/04/09 04:19:16;;;;;;;20.93;16.63;;;5.40;75.20;;;;;;5045461;28;20111;-36
2021/04/09 04:21:46;;;;;;;21.73;15.98;;;5.40;75.40;;;;;;5041714;28;20331;-36
2021/04/09 04:24:17;;;;;;;22.42;16.38;;;5.40;75.50;;;;;;5025579;28;20250;-36
2021/04/09 04:26:52;;;;;;;21.20;17.23;;;5.40;75.70;;;;;;5029930;28;20049;-36
2021/04/09 04:29:23;;;;;;;19.48;15.77;;;5.40;75.80;;;;;;5039249;28;20049;-36
2021/04/09 04:31:52;;;;;;;19.67;16.23;;;5.50;75.80;;;;;;5045703;28;20052;-36
2021/04/09 04:34:21;;;;;;;20.23;17.25;;;5.50;75.80;;;;;;5036423;28;20080;-37
2021/04/09 04:36:52;;;;;;;19.73;16.38;;;5.50;75.90;;;;;;5021481;28;20059;-37
2021/04/09 04:39:21;;;;;;;20.63;16.35;;;5.50;75.90;;;;;;5025941;28;20520;-37
2021/04/09 04:41:50;;;;;;;20.48;15.18;;;5.50;76.50;;;;;;5026655;28;20421;-37
2021/04/09 04:44:22;;;;;;;18.60;16.55;;;5.60;75.90;;;;;;5031767;28;20053;-36
2021/04/09 04:46:51;;;;;;;19.10;16.58;;;5.60;76.20;;;;;;5026654;28;20515;-36
2021/04/09 04:49:21;;;;;;;19.13;16.92;;;5.60;76.10;;;;;;5005874;28;20498;-36
2021/04/09 04:51:54;;;;;;;20.92;17.08;;;5.60;76.40;;;;;;5025687;28;20049;-36
2021/04/09 04:54:20;;;;;;;24.23;16.55;;;5.70;76.00;;;;;;5025466;28;20053;-36
2021/04/09 04:56:51;;;;;;;18.60;16.00;;;5.70;76.20;;;;;;5026466;28;20061;-36
2021/04/09 04:59:23;;;;;;;19.97;16.37;;;5.70;76.50;;;;;;5030258;28;20041;-37
2021/04/09 05:01:52;;;;;;;21.38;16.17;;;5.60;76.50;;;;;;5028416;28;20311;-36
2021/04/09 05:04:28;;;;;;;23.73;17.23;;;5.60;76.70;;;;;;5034287;28;20691;-37
2021/04/09 05:07:01;;;;;;;19.63;17.27;;;5.50;76.90;;;;;;5037226;28;20052;-37
2021/04/09 05:09:30;;;;;;;19.88;15.93;;;5.50;77.50;;;;;;5028200;28;20123;-36
2021/04/09 05:12:01;;;;;;;21.73;16.05;;;5.50;77.70;;;;;;5034662;28;20140;-36
2021/04/09 05:14:27;;;;;;;22.30;17.77;;;5.50;77.80;;;;;;5035170;28;20562;-36
2021/04/09 05:16:58;;;;;;;21.52;17.17;;;5.50;77.90;;;;;;5040082;28;20375;-36
2021/04/09 05:19:30;;;;;;;19.48;17.40;;;5.40;78.40;;;;;;5030399;28;20132;-36
2021/04/09 05:22:01;;;;;;;21.27;16.52;;;5.40;78.60;;;;;;5037751;28;20225;-37
2021/04/09 05:24:30;;;;;;;19.97;16.33;;;5.40;78.90;;;;;;5031590;28;20153;-36
2021/04/09 05:27:01;;;;;;;20.52;17.10;;;5.40;79.10;;;;;;5033353;28;20051;-36
2021/04/09 05:29:30;;;;;;;21.27;18.23;;;5.30;79.10;;;;;;5037182;28;20049;-37
2021/04/09 05:32:06;;;;;;;26.40;17.70;;;5.40;78.90;;;;;;5031738;28;20057;-36
2021/04/09 05:34:35;;;;;;;21.92;17.35;;;5.40;79.10;;;;;;5032770;28;21181;-36
2021/04/09 05:37:08;;;;;;;25.38;19.30;;;5.30;79.60;;;;;;5035428;28;20049;-38
2021/04/09 05:39:38;;;;;;;24.90;18.27;;;5.40;79.80;;;;;;5033677;28;20053;-41
2021/04/09 05:42:07;;;;;;;22.30;18.33;;;5.50;79.20;;;;;;5034260;28;20053;-40
2021/04/09 05:44:36;;;;;;;19.95;17.50;;;5.60;79.50;;;;;;5033998;28;20041;-40
2021/04/09 05:47:07;;;;;;;22.55;18.52;;;5.70;79.10;;;;;;5031068;28;20049;-40
2021/04/09 05:49:36;;;;;;;19.85;16.45;;;5.70;78.90;;;;;;5027526;28;20406;-43
2021/04/09 05:52:06;;;;;;;21.95;16.88;;;5.80;78.80;;;;;;5029766;28;20046;-38
2021/04/09 05:54:40;;;;;;;52.65;36.55;;;5.80;78.70;;;;;;5034134;28;20057;-39
2021/04/09 05:57:09;;;;;;;30.70;22.60;;;5.80;79.00;;;;;;5032267;28;20060;-39
2021/04/09 05:59:37;;;;;;;23.75;20.63;;;5.80;79.10;;;;;;5032089;28;20041;-39
2021/04/09 06:02:06;;;;;;;22.13;18.23;;;5.90;79.00;;;;;;5037935;28;20493;-39
2021/04/09 06:04:36;;;;;;;21.73;17.77;;;5.90;79.50;;;;;;5029989;28;20450;-38
2021/04/09 06:07:02;;;;;;;23.50;19.23;;;6.00;78.80;;;;;;5035167;28;20136;-39
2021/04/09 06:09:35;;;;;;;23.02;19.27;;;6.20;78.80;;;;;;5033907;28;20402;-38
2021/04/09 06:12:03;;;;;;;19.20;15.98;;;6.30;78.70;;;;;;5029211;28;20049;-39
2021/04/09 06:14:32;;;;;;;22.02;18.58;;;6.50;77.50;;;;;;5039114;28;20489;-39
2021/04/09 06:17:02;;;;;;;25.20;18.55;;;6.60;77.40;;;;;;5037561;28;20203;-38
2021/04/09 06:19:29;;;;;;;25.27;21.15;;;6.70;76.80;;;;;;5039649;28;20041;-39
2021/04/09 06:22:00;;;;;;;21.25;17.60;;;6.80;77.10;;;;;;5035193;28;20068;-38
2021/04/09 06:24:30;;;;;;;20.55;16.80;;;6.90;76.50;;;;;;5036103;28;20040;-38
2021/04/09 06:26:59;;;;;;;22.67;17.42;;;6.90;76.00;;;;;;5036824;28;20065;-37
2021/04/09 06:29:28;;;;;;;20.05;17.83;;;7.00;76.70;;;;;;5045109;28;20055;-39
2021/04/09 06:31:54;;;;;;;22.05;17.17;;;7.10;76.50;;;;;;5027997;28;20489;-37
2021/04/09 06:34:24;;;;;;;46.92;34.90;;;7.30;76.60;;;;;;5032831;28;20057;-39
2021/04/09 06:36:53;;;;;;;27.40;22.23;;;7.40;75.30;;;;;;5037915;28;20136;-39
2021/04/09 06:39:19;;;;;;;19.67;17.65;;;7.50;75.10;;;;;;5035421;28;20056;-38
2021/04/09 06:41:54;;;;;;;24.33;18.55;;;7.50;75.70;;;;;;5039832;28;20041;-39
2021/04/09 06:44:23;;;;;;;23.08;17.85;;;7.40;75.90;;;;;;5042260;28;20072;-38
2021/04/09 06:46:49;;;;;;;21.27;17.50;;;7.40;76.10;;;;;;5018190;28;20047;-39
2021/04/09 06:49:16;;;;;;;19.83;16.33;;;7.40;76.20;;;;;;5034271;28;20139;-38
2021/04/09 06:51:51;;;;;;;27.48;22.60;;;7.40;76.10;;;;;;5031847;28;20114;-38
2021/04/09 06:54:17;;;;;;;25.13;22.02;;;7.50;76.50;;;;;;5038968;28;20057;-37
2021/04/09 06:56:44;;;;;;;25.25;19.38;;;7.50;76.30;;;;;;5036668;28;20057;-38
2021/04/09 06:59:23;;;;;;;27.05;20.60;;;7.50;76.60;;;;;;5037933;28;20050;-38
2021/04/09 07:01:51;;;;;;;21.48;17.60;;;7.60;76.30;;;;;;5034560;28;20506;-39
2021/04/09 07:04:18;;;;;;;25.70;18.00;;;7.50;76.00;;;;;;5032525;28;20160;-39
2021/04/09 07:06:49;;;;;;;21.35;16.05;;;7.70;76.20;;;;;;5042448;28;20057;-38
2021/04/09 07:09:18;;;;;;;19.88;15.90;;;7.90;76.20;;;;;;5031564;28;20080;-38
2021/04/09 07:11:51;;;;;;;21.67;16.02;;;8.20;75.90;;;;;;5038184;28;20041;-40
2021/04/09 07:14:18;;;;;;;22.13;15.63;;;8.30;74.80;;;;;;5040410;28;20808;-39
2021/04/09 07:17:03;;;;;;;19.75;15.75;;;8.40;74.70;;;;;;5036522;28;20053;-39
2021/04/09 07:19:35;;;;;;;20.23;16.80;;;8.20;74.20;;;;;;5032544;28;20414;-39
2021/04/09 07:22:07;;;;;;;21.13;15.95;;;8.20;75.40;;;;;;5039664;28;20061;-39
2021/04/09 07:24:33;;;;;;;21.65;14.55;;;8.20;75.10;;;;;;5033211;28;20160;-40
2021/04/09 07:27:00;;;;;;;35.78;25.73;;;8.50;75.00;;;;;;5028180;28;20681;-39
2021/04/09 08:06:34;;;;;;;17.40;13.05;;;9.60;72.70;;;;;;5017648;28;20039;-40
2021/04/09 08:09:02;;;;;;;17.40;13.38;;;9.80;73.60;;;;;;5025807;28;20053;-38
2021/04/09 08:11:37;;;;;;;17.40;12.95;;;10.10;73.40;;;;;;5026726;28;20480;-39
2021/04/09 08:14:11;;;;;;;14.20;12.48;;;10.10;72.40;;;;;;5024331;28;20162;-38
2021/04/09 08:16:46;;;;;;;18.88;13.23;;;10.30;72.60;;;;;;5027302;28;20061;-37
2021/04/09 08:19:21;;;;;;;20.65;13.15;;;10.10;71.70;;;;;;5024555;28;20106;-37
2021/04/09 08:21:58;;;;;;;19.50;13.13;;;10.10;72.40;;;;;;5027324;28;20052;-38
2021/04/09 08:24:35;;;;;;;19.10;13.73;;;10.10;72.50;;;;;;5017605;28;20053;-38
2021/04/09 08:27:07;;;;;;;20.80;14.73;;;10.10;73.00;;;;;;5033080;28;20049;-39
2021/04/09 08:29:36;;;;;;;;;;;9.80;72.80;;;;;;5027839;28;20060;-37
2021/04/09 08:32:14;;;;;;;20.65;16.40;;;10.10;73.70;;;;;;5027374;28;20000;-37
2021/04/09 08:34:44;;;;;;;22.77;14.45;;;10.40;72.50;;;;;;5024561;28;20052;-37
2021/04/09 08:37:17;;;;;;;23.65;16.20;;;10.50;71.60;;;;;;5025403;28;20383;-37
2021/04/09 08:39:55;;;;;;;18.58;12.50;;;10.50;71.00;;;;;;5026314;28;20080;-37
2021/04/09 08:42:28;;;;;;;20.88;13.88;;;10.50;72.40;;;;;;5027091;28;20053;-37
2021/04/09 08:45:03;;;;;;;17.48;12.52;;;10.70;71.00;;;;;;5026379;28;20077;-36
2021/04/09 08:47:41;;;;;;;18.63;12.30;;;10.90;71.70;;;;;;5021868;28;20065;-37
2021/04/09 08:50:13;;;;;;;18.75;12.60;;;11.00;71.40;;;;;;5022669;28;20073;-37
2021/04/09 08:52:47;;;;;;;15.85;11.82;;;11.70;70.60;;;;;;5020682;28;20497;-37
2021/04/09 08:55:15;;;;;;;14.90;11.80;;;12.20;68.40;;;;;;5022501;28;20053;-37
2021/04/09 08:57:44;;;;;;;17.13;11.73;;;12.10;68.20;;;;;;5023435;28;20053;-37
2021/04/09 09:00:19;;;;;;;15.65;10.85;;;11.80;67.70;;;;;;5022317;28;20059;-38
2021/04/09 09:02:57;;;;;;;15.73;11.32;;;11.20;68.70;;;;;;5020798;28;20651;-38
2021/04/09 09:05:26;;;;;;;16.13;11.55;;;10.90;69.80;;;;;;5019398;28;20053;-38
2021/04/09 09:07:59;;;;;;;13.88;10.43;;;11.00;71.00;;;;;;5021030;28;20061;-38
2021/04/09 09:10:28;;;;;;;18.23;11.45;;;10.80;71.10;;;;;;5022208;28;20054;-39
2021/04/09 09:15:44;;;;;;;21.70;11.52;;;10.60;72.70;;;;;;5021984;28;20163;-38
2021/04/09 09:18:19;;;;;;;15.98;10.95;;;11.00;71.80;;;;;;5020806;28;20053;-37
2021/04/09 09:21:00;;;;;;;17.05;11.20;;;11.10;71.60;;;;;;5023239;28;20068;-37
2021/04/09 09:23:51;;;;;;;21.27;14.80;;;11.20;71.10;;;;;;5022065;28;20513;-39
2021/04/09 09:26:34;;;;;;;16.30;11.85;;;11.10;70.40;;;;;;5025705;28;20148;-39
2021/04/09 09:29:28;;;;;;;18.52;11.57;;;10.90;71.30;;;;;;5025058;28;20502;-38
2021/04/09 09:32:10;;;;;;;18.85;10.25;;;10.80;72.20;;;;;;5024517;28;20042;-37
2021/04/09 09:34:49;;;;;;;14.18;8.93;;;10.50;72.70;;;;;;5026807;28;20095;-39
2021/04/09 09:37:34;;;;;;;16.83;12.20;;;10.20;73.30;;;;;;5056649;28;20520;-39
2021/04/09 09:40:13;;;;;;;13.93;8.25;;;10.20;74.60;;;;;;5025336;28;20084;-41
2021/04/09 09:42:44;;;;;;;13.18;8.55;;;10.10;74.90;;;;;;5026140;28;20119;-39
2021/04/09 09:45:38;;;;;;;17.13;9.53;;;10.00;74.90;;;;;;5040041;28;20490;-39
2021/04/09 09:48:15;;;;;;;11.77;7.95;;;9.80;75.30;;;;;;5040709;28;20152;-39
2021/04/09 09:50:41;;;;;;;17.65;8.50;;;9.90;75.30;;;;;;5023980;28;20114;-39
2021/04/09 09:53:11;;;;;;;14.18;8.13;;;9.90;75.10;;;;;;5033671;28;20046;-37
2021/04/09 09:55:50;;;;;;;13.15;7.85;;;9.90;75.00;;;;;;5031233;28;20061;-37
2021/04/09 09:58:24;;;;;;;13.00;8.13;;;9.90;74.80;;;;;;5022901;28;20058;-37
2021/04/09 10:01:01;;;;;;;14.40;7.90;;;10.00;75.30;;;;;;5026560;28;20081;-37
2021/04/09 10:03:38;;;;;;;10.38;6.70;;;10.10;75.10;;;;;;5036803;28;20457;-37
2021/04/09 10:06:13;;;;;;;16.40;8.77;;;10.10;74.40;;;;;;5036241;28;20053;-37
2021/04/09 10:08:49;;;;;;;19.75;7.60;;;10.20;73.70;;;;;;5050451;28;20047;-39
2021/04/09 10:11:27;;;;;;;15.35;8.18;;;10.20;72.40;;;;;;5034394;28;20070;-38
2021/04/09 10:14:00;;;;;;;14.57;7.13;;;10.30;73.20;;;;;;5035397;28;20053;-38
2021/04/09 10:16:26;;;;;;;11.68;7.25;;;10.30;72.90;;;;;;5035777;28;20058;-37
2021/04/09 10:18:53;;;;;;;14.40;8.30;;;10.40;73.90;;;;;;5039155;28;20041;-38
2021/04/09 10:21:23;;;;;;;14.20;7.97;;;10.70;72.70;;;;;;5034085;28;20045;-39
2021/04/09 10:24:03;;;;;;;15.15;8.18;;;10.70;72.20;;;;;;5072177;28;20057;-39
2021/04/09 10:26:50;;;;;;;13.68;7.70;;;10.70;72.10;;;;;;5038277;28;20095;-39
2021/04/09 10:29:27;;;;;;;14.13;8.23;;;10.60;72.40;;;;;;5040338;28;20139;-39
2021/04/09 10:31:57;;;;;;;16.40;7.80;;;10.20;73.10;;;;;;5032471;28;20054;-39
2021/04/09 10:34:27;;;;;;;15.30;10.00;;;10.30;74.10;;;;;;5036585;28;20076;-39
2021/04/09 10:36:59;;;;;;;17.27;11.10;;;10.20;74.10;;;;;;5037419;28;20115;-38
2021/04/09 10:39:26;;;;;;;13.77;9.50;;;10.20;74.20;;;;;;5044610;28;20404;-40
2021/04/09 10:42:01;;;;;;;20.35;11.85;;;10.10;74.90;;;;;;5043180;28;20064;-38
2021/04/09 10:44:35;;;;;;;16.65;8.88;;;10.20;75.40;;;;;;5037497;28;20095;-38
2021/04/09 10:47:08;;;;;;;15.85;9.05;;;10.50;74.30;;;;;;5037123;28;20450;-39
2021/04/09 10:49:46;;;;;;;14.48;8.43;;;10.60;73.90;;;;;;5037759;28;20053;-39
2021/04/09 10:52:20;;;;;;;14.23;8.20;;;11.00;73.80;;;;;;5033914;28;20046;-37
2021/04/09 10:55:00;;;;;;;14.20;7.35;;;11.10;71.60;;;;;;5036073;28;20069;-39
2021/04/09 10:57:28;;;;;;;11.20;6.82;;;11.10;70.80;;;;;;5034970;28;20045;-39
2021/04/09 11:00:08;;;;;;;13.95;6.28;;;11.50;71.10;;;;;;5035686;28;20071;-38
2021/04/09 11:02:45;;;;;;;12.88;6.55;;;11.50;70.20;;;;;;5035205;28;20049;-38
2021/04/09 11:05:15;;;;;;;13.35;6.55;;;11.40;69.60;;;;;;5032980;28;20072;-38
2021/04/09 11:07:48;;;;;;;12.50;6.63;;;11.50;69.90;;;;;;5031654;28;20096;-39
2021/04/09 11:10:38;;;;;;;11.13;6.40;;;11.70;69.80;;;;;;5035044;28;20135;-37
2021/04/09 11:13:10;;;;;;;7.57;5.30;;;11.80;69.20;;;;;;5037823;28;20073;-38
2021/04/09 11:15:42;;;;;;;15.10;5.50;;;11.80;68.60;;;;;;5031423;28;20057;-38
2021/04/09 11:18:12;;;;;;;11.70;4.95;;;12.00;68.20;;;;;;5031008;28;20048;-39
2021/04/09 11:20:44;;;;;;;12.57;4.63;;;11.80;67.80;;;;;;5028934;28;20052;-39
2021/04/09 11:23:15;;;;;;;11.10;4.82;;;11.80;68.90;;;;;;5030443;28;20057;-39
2021/04/09 11:25:54;;;;;;;8.30;3.90;;;12.10;68.10;;;;;;5031735;28;20458;-39
2021/04/09 11:28:31;;;;;;;11.40;4.32;;;12.00;67.80;;;;;;5034838;28;20180;-38
2021/04/09 11:31:12;;;;;;;12.52;4.70;;;12.00;67.90;;;;;;5036105;28;20058;-37
2021/04/09 11:33:44;;;;;;;;;;;12.20;67.00;;;;;;5035602;28;20515;-37
2021/04/09 11:36:23;;;;;;;11.05;4.13;;;11.80;65.90;;;;;;5033402;28;19936;-38
2021/04/09 11:39:05;;;;;;;8.18;4.72;;;11.60;67.20;;;;;;5036232;28;20099;-38
2021/04/09 11:41:43;;;;;;;;;;;11.50;68.60;;;;;;5027022;28;20471;-37
2021/04/09 11:44:33;;;;;;;12.43;5.28;;;11.50;69.00;;;;;;5032457;28;20034;-38
2021/04/09 11:47:29;;;;;;;8.05;5.32;;;11.60;68.50;;;;;;5047063;28;20049;-36
2021/04/09 11:50:17;;;;;;;13.18;5.05;;;11.30;69.90;;;;;;5033092;28;20793;-37
2021/04/09 11:53:01;;;;;;;11.35;5.43;;;11.20;69.60;;;;;;5038954;28;20053;-37
2021/04/09 11:55:39;;;;;;;11.98;6.05;;;11.10;69.80;;;;;;5072664;28;20478;-37
2021/04/09 11:58:16;;;;;;;13.60;4.40;;;11.20;70.30;;;;;;5036832;28;20049;-36
2021/04/09 12:00:59;;;;;;;8.98;4.50;;;11.00;69.40;;;;;;5029570;28;20045;-37
2021/04/09 12:03:41;;;;;;;9.80;4.32;;;10.90;70.30;;;;;;5026383;28;20516;-38
2021/04/09 12:06:21;;;;;;;8.38;3.63;;;11.00;69.30;;;;;;5026418;28;20073;-38
2021/04/09 12:08:48;;;;;;;9.25;4.45;;;11.00;69.10;;;;;;5031826;28;20042;-38
2021/04/09 12:11:16;;;;;;;5.88;3.80;;;11.00;69.10;;;;;;5038214;28;20045;-36
2021/04/09 12:13:47;;;;;;;14.95;7.63;;;11.00;69.00;;;;;;5034563;28;20041;-37
2021/04/09 12:16:16;;;;;;;12.25;5.45;;;11.10;68.50;;;;;;5026926;28;20053;-38
2021/04/09 12:18:44;;;;;;;18.85;11.80;;;11.10;68.10;;;;;;5030905;28;20053;-37
2021/04/09 12:21:15;;;;;;;9.82;4.40;;;11.20;68.90;;;;;;5021786;28;20508;-37
2021/04/09 12:23:49;;;;;;;11.17;5.07;;;11.20;69.10;;;;;;5045832;28;20155;-37
2021/04/09 12:26:15;;;;;;;9.75;5.38;;;11.50;67.70;;;;;;5036193;28;20148;-37
2021/04/09 12:28:46;;;;;;;11.80;5.68;;;11.90;67.20;;;;;;5032241;28;20046;-37
2021/04/09 12:31:14;;;;;;;11.75;5.22;;;12.20;66.00;;;;;;5023872;28;20132;-37
2021/04/09 12:33:46;;;;;;;11.45;5.05;;;12.60;65.70;;;;;;5026881;28;20076;-38
2021/04/09 12:36:15;;;;;;;8.05;4.30;;;12.60;64.30;;;;;;5026006;28;20417;-38
2021/04/09 12:38:41;;;;;;;10.98;4.90;;;12.70;65.30;;;;;;5025358;28;20048;-38
2021/04/09 12:41:19;;;;;;;8.70;4.38;;;13.10;65.20;;;;;;5029972;28;20371;-38
2021/04/09 12:43:48;;;;;;;10.30;4.97;;;13.20;64.50;;;;;;5042475;28;20496;-37
2021/04/09 12:46:15;;;;;;;8.23;3.67;;;13.00;64.30;;;;;;5028178;28;20088;-37
2021/04/09 12:48:41;;;;;;;7.60;3.45;;;12.80;64.30;;;;;;5026794;28;20135;-37
2021/04/09 12:51:07;;;;;;;8.10;3.35;;;12.40;63.80;;;;;;5028200;28;20897;-37
2021/04/09 12:53:35;;;;;;;10.80;4.97;;;12.20;64.90;;;;;;5036991;28;20052;-37
2021/04/09 12:56:04;;;;;;;14.25;6.55;;;11.80;64.50;;;;;;5033151;28;20091;-39
2021/04/09 12:58:33;;;;;;;8.82;6.05;;;11.50;65.50;;;;;;5037034;28;20061;-38
2021/04/09 13:00:59;;;;;;;8.30;4.93;;;11.40;66.50;;;;;;5042242;28;20512;-38
2021/04/09 13:03:29;;;;;;;12.95;8.15;;;11.30;67.80;;;;;;5036102;28;20049;-38
2021/04/09 13:05:55;;;;;;;8.77;5.57;;;11.20;68.50;;;;;;5034341;28;20053;-38
2021/04/09 13:08:22;;;;;;;12.68;7.90;;;11.00;69.70;;;;;;5036319;28;20148;-38
2021/04/09 13:10:56;;;;;;;13.10;7.22;;;10.90;69.70;;;;;;5028056;28;20132;-38
2021/04/09 13:13:22;;;;;;;11.43;6.03;;;10.70;71.10;;;;;;5024087;28;20041;-38
2021/04/09 13:15:59;;;;;;;14.27;5.47;;;10.60;71.70;;;;;;5026306;28;20060;-38
2021/04/09 13:18:29;;;;;;;13.38;5.40;;;10.60;73.10;;;;;;5029501;28;20041;-37
2021/04/09 13:21:00;;;;;;;11.70;5.28;;;10.50;73.20;;;;;;5025168;28;20134;-37
2021/04/09 13:23:29;;;;;;;10.35;5.70;;;10.60;74.70;;;;;;5061221;28;20056;-37
2021/04/09 13:26:02;;;;;;;8.93;5.43;;;10.50;74.70;;;;;;5033573;28;20077;-37
2021/04/09 13:28:29;;;;;;;8.48;5.15;;;10.50;75.90;;;;;;5032015;28;20057;-37
2021/04/09 13:30:59;;;;;;;11.55;5.65;;;10.40;75.90;;;;;;5033192;28;20060;-37
2021/04/09 13:33:35;;;;;;;14.00;6.45;;;10.40;76.60;;;;;;5035038;28;20060;-37
2021/04/09 13:36:11;;;;;;;10.70;5.50;;;10.40;77.50;;;;;;5029063;28;20084;-37
2021/04/09 13:38:42;;;;;;;10.32;6.03;;;10.40;77.90;;;;;;5031534;28;20057;-37
2021/04/09 13:41:12;;;;;;;12.85;6.05;;;10.40;77.40;;;;;;5034496;28;20049;-37
2021/04/09 13:43:45;;;;;;;14.65;6.82;;;10.40;78.00;;;;;;5038726;28;20075;-37
2021/04/09 13:46:18;;;;;;;12.87;5.67;;;10.30;77.70;;;;;;5036592;28;20053;-37